Miners Mill, Pennsylvania
Current Conditions -  °F | °C
As of 9:54 AM on Thursday 23 Oct 2014 (Local Time) from KAVP Reporting Station
Light Rain Light Rain  
Wind Chill: 42°   Ceiling: 1400
Heat Index: 46°   Visibility: 8mi
Dew Point: 41°   Wind: 8mph
Humidity: 83%   Direction: 360°N
Pressure: 29.88"   Gusts: NA
Location:  41.2711°N, 75.8417°W
Report Text: KAVP 231354Z AUTO 36007KT 330V040 8SM -RA OVC014 08/05 A2988 RMK AO2 SLP117 P0000 T00780050
Loading
Personal Weather Stations






























Interactive Weather Map
Tropical Storm Tracking
New forecast layout! Learn more

10-Day Weather Forecast

Advertisements
Track Severe Weather on mobile